createdAt,value
2022-11-16T00:02:02.195Z,103.13
2022-11-16T00:05:04.255Z,92.85
2022-11-16T00:08:06.042Z,108.40
2022-11-16T00:11:18.025Z,110.07
2022-11-16T00:14:21.449Z,127.25
2022-11-16T00:17:23.314Z,180.38
2022-11-16T00:20:25.137Z,236.02
2022-11-16T00:23:26.941Z,347.67
2022-11-16T00:26:29.105Z,331.20
2022-11-16T00:29:31.038Z,381.73
2022-11-16T00:32:33.513Z,407.52
2022-11-16T00:35:40.038Z,527.67
2022-11-16T00:38:42.557Z,342.65
2022-11-16T00:41:44.965Z,440.50
2022-11-16T00:44:46.754Z,426.33
2022-11-16T00:47:48.622Z,495.60
2022-11-16T00:50:50.484Z,445.48
2022-11-16T00:53:52.702Z,375.90
2022-11-16T00:56:55.095Z,455.97
2022-11-16T00:59:57.428Z,416.17
2022-11-16T01:02:59.474Z,492.67
2022-11-16T01:06:03.583Z,396.70
2022-11-16T01:09:05.890Z,412.80
2022-11-16T01:12:09.495Z,377.83
2022-11-16T01:15:13.086Z,452.70
2022-11-16T01:18:14.922Z,463.88
2022-11-16T01:21:17.462Z,503.00
2022-11-16T01:24:19.446Z,456.75
2022-11-16T01:27:21.327Z,547.87
2022-11-16T01:30:23.312Z,323.55
2022-11-16T01:33:36.855Z,545.85
2022-11-16T01:36:39.003Z,393.02
2022-11-16T01:39:40.817Z,455.35
2022-11-16T01:42:43.677Z,505.13
2022-11-16T01:45:46.563Z,338.52
2022-11-16T01:49:18.386Z,366.30
2022-11-16T01:52:25.269Z,550.28
2022-11-16T01:55:31.000Z,419.53
2022-11-16T01:58:55.546Z,443.20
2022-11-16T02:02:01.582Z,370.45
2022-11-16T02:05:06.033Z,395.13
2022-11-16T02:08:53.757Z,351.83
2022-11-16T02:12:06.824Z,465.10
2022-11-16T02:15:34.516Z,291.30
2022-11-16T02:19:12.138Z,321.08
2022-11-16T02:22:13.931Z,480.63
2022-11-16T02:25:35.006Z,286.40
2022-11-16T02:28:45.821Z,309.73
2022-11-16T02:32:02.990Z,353.33
2022-11-16T02:35:20.955Z,351.27
2022-11-16T02:38:29.687Z,495.20
2022-11-16T02:41:37.023Z,366.30
2022-11-16T02:44:43.795Z,374.73
2022-11-16T02:47:48.570Z,407.90
2022-11-16T02:50:53.476Z,420.98
2022-11-16T02:54:03.020Z,439.95
2022-11-16T02:57:06.015Z,403.52
2022-11-16T03:00:15.750Z,390.25
2022-11-16T03:03:42.079Z,399.97
2022-11-16T03:06:48.492Z,556.08
2022-11-16T03:09:51.997Z,336.30
2022-11-16T03:12:53.979Z,521.83
2022-11-16T03:15:56.397Z,413.20
2022-11-16T03:19:02.356Z,467.77
2022-11-16T03:22:37.603Z,368.70
2022-11-16T03:25:52.602Z,464.80
2022-11-16T03:29:13.947Z,654.63
2022-11-16T03:32:26.036Z,479.80
2022-11-16T03:35:45.776Z,388.03
2022-11-16T03:38:50.847Z,502.48
2022-11-16T03:41:54.066Z,505.67
2022-11-16T03:44:56.271Z,515.00
2022-11-16T03:48:00.677Z,369.37
2022-11-16T03:51:03.891Z,413.97
2022-11-16T03:54:07.699Z,444.30
2022-11-16T03:57:18.072Z,391.08
2022-11-16T04:00:24.974Z,526.90
2022-11-16T04:03:28.250Z,427.07
2022-11-16T04:06:48.876Z,381.53
2022-11-16T04:10:09.133Z,492.40
2022-11-16T04:13:31.701Z,416.92
2022-11-16T04:16:52.498Z,451.48
2022-11-16T04:20:14.509Z,365.80
2022-11-16T04:23:35.253Z,388.33
2022-11-16T04:26:57.829Z,305.75
2022-11-16T04:30:02.634Z,452.85
2022-11-16T04:33:25.177Z,311.80
2022-11-16T04:36:45.942Z,337.08
2022-11-16T04:39:47.911Z,392.13
2022-11-16T04:42:58.167Z,515.33
2022-11-16T04:46:19.689Z,501.27
2022-11-16T04:49:21.447Z,457.85
2022-11-16T04:52:23.277Z,462.98
2022-11-16T04:55:26.782Z,355.63
2022-11-16T04:58:28.669Z,441.65
2022-11-16T05:01:49.608Z,426.08
2022-11-16T05:04:51.690Z,309.48
2022-11-16T05:07:55.367Z,324.48
2022-11-16T05:11:01.964Z,397.37
2022-11-16T05:14:05.234Z,328.48
2022-11-16T05:17:08.341Z,373.58
2022-11-16T05:20:29.287Z,239.65
2022-11-16T05:23:54.977Z,212.98
2022-11-16T05:27:08.705Z,292.27
2022-11-16T05:30:11.941Z,347.17
2022-11-16T05:33:16.448Z,336.40
2022-11-16T05:36:19.131Z,311.25
2022-11-16T05:39:21.154Z,305.80
2022-11-16T05:43:04.719Z,462.50
2022-11-16T05:47:11.810Z,287.88
2022-11-16T05:51:13.438Z,289.65
2022-11-16T05:54:35.334Z,249.60
2022-11-16T05:57:38.428Z,411.25
2022-11-16T06:00:40.466Z,229.43
2022-11-16T06:03:44.747Z,226.82
2022-11-16T06:06:47.630Z,208.15
2022-11-16T06:09:49.631Z,139.25
2022-11-16T06:12:55.655Z,236.00
2022-11-16T06:15:59.055Z,233.60
2022-11-16T06:19:01.667Z,276.70
2022-11-16T06:22:03.978Z,430.83
2022-11-16T06:29:11.837Z,232.32
2022-11-16T06:32:14.641Z,142.27
2022-11-16T06:35:17.266Z,191.25
2022-11-16T06:38:20.195Z,222.95
2022-11-16T06:41:24.358Z,151.25
2022-11-16T06:44:26.462Z,103.13
2022-11-16T06:47:34.542Z,315.73
2022-11-16T06:50:36.520Z,112.38
2022-11-16T06:53:40.377Z,110.93
2022-11-16T06:56:43.787Z,114.00
2022-11-16T06:59:47.470Z,107.03
2022-11-16T07:02:51.321Z,119.17
2022-11-16T07:05:55.830Z,136.60
2022-11-16T07:08:59.370Z,103.15
2022-11-16T07:12:07.235Z,84.93
2022-11-16T07:15:12.946Z,83.83
2022-11-16T07:18:17.020Z,83.53
2022-11-16T07:21:19.525Z,96.95
2022-11-16T07:24:21.614Z,77.22
2022-11-16T07:27:24.349Z,67.25
2022-11-16T07:30:27.919Z,66.75
2022-11-16T07:33:40.828Z,77.83
2022-11-16T07:37:18.417Z,87.35
2022-11-16T07:40:21.468Z,77.07
2022-11-16T07:43:24.242Z,70.13
2022-11-16T07:46:47.064Z,82.13
2022-11-16T07:49:50.296Z,71.50
2022-11-16T07:52:56.418Z,75.00
2022-11-16T07:55:58.683Z,94.38
2022-11-16T07:59:03.474Z,88.43
2022-11-16T08:02:10.953Z,104.20
2022-11-16T08:05:15.227Z,103.90
2022-11-16T08:08:17.613Z,85.07
2022-11-16T08:11:20.750Z,81.40
2022-11-16T08:14:25.500Z,78.25
2022-11-16T08:17:30.842Z,87.00
2022-11-16T08:20:35.070Z,75.70
2022-11-16T08:23:37.625Z,82.68
2022-11-16T08:26:39.604Z,84.80
2022-11-16T08:29:46.458Z,95.55
2022-11-16T08:32:48.696Z,102.37
2022-11-16T08:35:53.139Z,172.73
2022-11-16T08:38:55.797Z,123.20
2022-11-16T08:41:59.694Z,96.75
2022-11-16T08:45:01.940Z,110.35
2022-11-16T08:48:05.660Z,226.23
2022-11-16T08:51:19.580Z,213.67
2022-11-16T08:54:28.913Z,154.48
2022-11-16T08:57:31.310Z,136.68
2022-11-16T09:00:38.249Z,165.95
2022-11-16T09:03:43.035Z,125.63
2022-11-16T09:06:45.815Z,111.47
2022-11-16T09:09:47.696Z,134.43
2022-11-16T09:12:50.220Z,170.43
2022-11-16T09:16:01.678Z,139.88
2022-11-16T09:19:03.671Z,205.43
2022-11-16T09:22:05.937Z,169.00
2022-11-16T09:25:09.445Z,134.07
2022-11-16T09:28:11.554Z,162.77
2022-11-16T09:31:16.550Z,150.75
2022-11-16T09:34:22.335Z,120.47
2022-11-16T09:37:24.410Z,98.07
2022-11-16T09:40:34.231Z,103.10
2022-11-16T09:43:55.540Z,98.72
2022-11-16T09:46:59.795Z,90.40
2022-11-16T09:50:05.345Z,89.00
2022-11-16T09:53:39.917Z,83.23
2022-11-16T09:56:44.473Z,78.80
2022-11-16T09:59:57.119Z,63.03
2022-11-16T10:03:02.781Z,64.70
2022-11-16T10:06:38.888Z,59.35
2022-11-16T10:09:41.081Z,65.60
2022-11-16T10:13:14.815Z,78.97
2022-11-16T10:16:32.063Z,79.93
2022-11-16T10:19:48.255Z,96.93
2022-11-16T10:22:50.422Z,79.53
2022-11-16T10:26:31.276Z,68.37
2022-11-16T10:29:55.831Z,76.95
2022-11-16T10:33:20.060Z,83.38
2022-11-16T10:36:27.482Z,107.50
2022-11-16T10:39:33.758Z,100.60
2022-11-16T10:42:39.309Z,104.23
2022-11-16T10:45:50.530Z,97.75
2022-11-16T10:49:01.160Z,90.18
2022-11-16T10:52:03.187Z,94.88
2022-11-16T10:55:05.718Z,99.97
2022-11-16T10:58:07.765Z,102.30
2022-11-16T11:01:12.669Z,103.43
2022-11-16T11:04:28.350Z,106.68
2022-11-16T11:07:33.206Z,95.15
2022-11-16T11:10:38.685Z,100.13
2022-11-16T11:13:40.580Z,91.97
2022-11-16T11:16:42.613Z,88.22
2022-11-16T11:19:45.279Z,90.20
2022-11-16T11:23:02.915Z,95.18
2022-11-16T11:26:05.327Z,93.65
2022-11-16T11:29:20.467Z,103.07
2022-11-16T11:32:26.848Z,104.82
2022-11-16T11:35:33.598Z,117.82
2022-11-16T11:39:03.277Z,119.40
2022-11-16T11:42:14.336Z,113.55
2022-11-16T11:45:17.966Z,116.47
2022-11-16T11:48:47.948Z,128.73
2022-11-16T11:51:51.802Z,120.88
2022-11-16T11:54:55.812Z,136.52
2022-11-16T11:58:00.474Z,136.00
2022-11-16T12:01:20.834Z,133.10
2022-11-16T12:04:48.402Z,126.88
2022-11-16T12:08:10.570Z,109.88
2022-11-16T12:11:24.485Z,118.07
2022-11-16T12:14:45.208Z,140.10
2022-11-16T12:18:05.148Z,104.20
2022-11-16T12:21:27.970Z,106.05
2022-11-16T12:24:35.539Z,94.63
2022-11-16T12:27:48.992Z,81.78
2022-11-16T12:31:06.789Z,93.82
2022-11-16T12:34:25.895Z,81.93
2022-11-16T12:37:52.282Z,75.47
2022-11-16T12:41:34.975Z,69.53
2022-11-16T12:44:39.467Z,61.42
2022-11-16T12:47:57.702Z,62.08
2022-11-16T12:51:50.347Z,65.43
2022-11-16T12:55:24.887Z,69.63
2022-11-16T12:58:31.022Z,78.70
2022-11-16T13:01:48.134Z,81.72
2022-11-16T13:04:55.050Z,93.80
2022-11-16T13:08:09.395Z,83.60
2022-11-16T13:11:20.598Z,90.18
2022-11-16T13:14:35.048Z,96.90
2022-11-16T13:17:38.841Z,92.45
2022-11-16T13:20:43.829Z,101.27
2022-11-16T13:24:23.866Z,93.03
2022-11-16T13:27:37.654Z,91.13
2022-11-16T13:31:16.663Z,77.57
2022-11-16T13:34:34.094Z,73.60
2022-11-16T13:37:38.429Z,68.90
2022-11-16T13:40:41.186Z,84.70
2022-11-16T13:43:49.449Z,83.20
2022-11-16T13:47:03.661Z,86.45
2022-11-16T13:50:16.916Z,90.93
2022-11-16T13:54:25.071Z,83.80
2022-11-16T13:56:53.027Z,97.63
2022-11-16T14:00:01.474Z,101.60
2022-11-16T14:03:11.782Z,110.97
2022-11-16T14:06:13.499Z,103.22
2022-11-16T14:09:43.248Z,107.57
2022-11-16T14:12:52.170Z,108.10
2022-11-16T14:16:19.848Z,110.82
2022-11-16T14:19:47.281Z,123.45
2022-11-16T14:23:16.371Z,128.23
2022-11-16T14:26:39.099Z,141.82
2022-11-16T14:30:02.143Z,111.70
2022-11-16T14:33:04.169Z,137.82
2022-11-16T14:36:10.744Z,141.52
2022-11-16T14:39:21.844Z,149.65
2022-11-16T14:42:27.211Z,193.47
2022-11-16T14:45:32.040Z,173.77
2022-11-16T14:49:16.701Z,176.27
2022-11-16T14:53:18.285Z,261.58
2022-11-16T14:57:05.245Z,314.67
2022-11-16T15:00:30.188Z,162.75
2022-11-16T15:03:37.056Z,146.00
2022-11-16T15:06:44.867Z,142.77
2022-11-16T15:09:52.870Z,116.20
2022-11-16T15:12:56.835Z,132.85
2022-11-16T15:16:19.940Z,144.02
2022-11-16T15:19:22.456Z,123.77
2022-11-16T15:22:27.076Z,122.60
2022-11-16T15:25:37.998Z,124.72
2022-11-16T15:28:40.167Z,127.50
2022-11-16T15:31:42.251Z,141.67
2022-11-16T15:34:50.959Z,142.57
2022-11-16T15:38:20.454Z,164.75
2022-11-16T15:41:24.398Z,139.30
2022-11-16T15:44:26.883Z,179.52
2022-11-16T15:47:28.820Z,163.37
2022-11-16T15:50:31.309Z,173.73
2022-11-16T15:53:34.494Z,172.07
2022-11-16T15:56:36.784Z,218.10
2022-11-16T15:59:38.729Z,195.57
2022-11-16T20:29:28.154Z,88.53
2022-11-16T20:32:30.410Z,94.20
2022-11-16T20:35:33.195Z,89.63
2022-11-16T20:38:36.540Z,91.35
2022-11-16T20:41:38.554Z,94.70
2022-11-16T20:44:40.754Z,95.45
2022-11-16T20:47:43.240Z,105.85
2022-11-16T20:50:45.678Z,105.77
2022-11-16T20:53:49.488Z,106.78
2022-11-16T20:56:51.594Z,105.40
2022-11-16T20:59:53.400Z,94.53
2022-11-16T21:02:55.456Z,85.28
2022-11-16T21:05:57.578Z,82.77
2022-11-16T21:09:00.119Z,72.15
2022-11-16T21:12:20.202Z,86.43
2022-11-16T21:15:22.246Z,79.63
2022-11-16T21:18:30.335Z,78.28
2022-11-16T21:21:33.527Z,72.50
2022-11-16T21:24:35.312Z,68.47
2022-11-16T21:27:37.133Z,68.82
2022-11-16T21:30:39.175Z,70.03
2022-11-16T21:33:41.555Z,67.88
2022-11-16T21:36:43.404Z,70.73
2022-11-16T21:39:45.338Z,69.57
2022-11-16T21:42:47.741Z,74.65
2022-11-16T21:45:49.690Z,71.10
2022-11-16T21:48:52.855Z,65.35
2022-11-16T21:51:54.692Z,72.47
2022-11-16T21:54:59.361Z,73.13
2022-11-16T21:58:03.590Z,66.35
2022-11-16T22:01:06.085Z,65.65
2022-11-16T22:04:26.800Z,63.58
2022-11-16T22:07:36.663Z,44.93
2022-11-16T22:10:41.274Z,57.25
2022-11-16T22:13:43.938Z,61.03
2022-11-16T22:16:45.746Z,55.53
2022-11-16T22:19:48.363Z,55.90
2022-11-16T22:22:50.224Z,61.77
2022-11-16T22:25:52.461Z,63.28
2022-11-16T22:28:54.687Z,62.83
2022-11-16T22:31:56.529Z,56.17
2022-11-16T22:34:58.273Z,56.63
2022-11-16T22:38:02.351Z,41.67
2022-11-16T22:41:04.265Z,56.00
2022-11-16T22:44:06.182Z,54.08
2022-11-16T22:47:09.497Z,51.55
2022-11-16T22:50:11.746Z,49.05
2022-11-16T22:53:14.695Z,51.20
2022-11-16T22:56:16.501Z,48.03
2022-11-16T22:59:18.318Z,53.25
2022-11-16T23:02:20.191Z,51.90
2022-11-16T23:05:22.113Z,50.25
2022-11-16T23:08:25.341Z,48.23
2022-11-16T23:11:45.878Z,54.63
2022-11-16T23:15:19.894Z,50.85
2022-11-16T23:18:21.683Z,48.70
2022-11-16T23:21:42.899Z,43.63
2022-11-16T23:25:03.878Z,41.40
2022-11-16T23:28:08.023Z,48.03
2022-11-16T23:31:09.892Z,41.10
2022-11-16T23:34:11.665Z,41.80
2022-11-16T23:37:13.643Z,42.80
2022-11-16T23:40:16.211Z,44.53
2022-11-16T23:43:36.654Z,45.80
2022-11-16T23:46:38.723Z,45.40
2022-11-16T23:49:40.699Z,35.88
2022-11-16T23:52:42.558Z,42.43
2022-11-16T23:55:44.479Z,40.40
2022-11-16T23:58:46.554Z,45.83
